Time;durP1;ratioP1;P1;durP2;ratioP2;P2;SDS_P1;SDS_P2;PMS_P1;PMS_P2;Temp;Humidity;BMP_temperature;BMP_pressure;BME280_temperature;BME280_humidity;BME280_pressure;Samples;Min_cycle;Max_cycle;Signal;HPM_P1;HPM_P2
2021/12/29 00:01:10;;;;;;;10.93;1.40;;;;;;;5.43;95.97;94942.38;5032844;28;20049;-73
2021/12/29 00:03:37;;;;;;;5.03;1.30;;;;;;;5.49;95.69;94948.41;5033254;28;20052;-73
2021/12/29 00:06:04;;;;;;;6.18;1.20;;;;;;;5.50;95.81;94942.66;5032601;28;20045;-73
2021/12/29 00:08:30;;;;;;;5.40;1.23;;;;;;;5.56;95.67;94939.81;5032965;28;20053;-73
2021/12/29 00:10:58;;;;;;;8.13;1.40;;;;;;;5.63;95.19;94940.09;5034302;28;20065;-72
2021/12/29 00:13:26;;;;;;;5.88;1.02;;;;;;;5.74;94.38;94933.22;5032492;28;20481;-73
2021/12/29 00:15:57;;;;;;;5.43;1.13;;;;;;;5.81;93.18;94947.06;5032968;28;20496;-73
2021/12/29 00:18:26;;;;;;;6.90;1.20;;;;;;;5.87;92.35;94944.97;5032406;28;20096;-73
2021/12/29 00:20:52;;;;;;;7.68;1.38;;;;;;;5.92;91.85;94948.34;5032906;28;20052;-73
2021/12/29 00:23:19;;;;;;;10.90;1.60;;;;;;;6.02;90.15;94941.78;5032232;28;20078;-72
2021/12/29 00:25:46;;;;;;;9.95;2.03;;;;;;;6.19;88.98;94943.63;5032962;28;20054;-73
2021/12/29 00:28:12;;;;;;;5.63;1.40;;;;;;;6.38;87.85;94946.72;5032537;28;20396;-73
2021/12/29 00:30:39;;;;;;;8.60;1.63;;;;;;;6.50;87.47;94946.81;5032653;28;20496;-74
2021/12/29 00:33:05;;;;;;;13.52;1.90;;;;;;;6.58;86.36;94957.91;5032150;28;20520;-72
2021/12/29 00:35:34;;;;;;;14.82;2.22;;;;;;;6.65;86.01;94941.97;5032322;28;20056;-74
2021/12/29 00:38:02;;;;;;;10.90;1.45;;;;;;;6.69;85.64;94942.91;5032598;28;20085;-73
2021/12/29 00:40:29;;;;;;;12.48;1.42;;;;;;;6.75;85.00;94936.19;5033588;28;20041;-73
2021/12/29 00:42:56;;;;;;;7.95;1.48;;;;;;;6.80;85.17;94947.63;5032290;28;20072;-73
2021/12/29 00:45:23;;;;;;;8.10;1.25;;;;;;;6.83;84.29;94943.44;5031356;28;20052;-74
2021/12/29 00:47:50;;;;;;;8.35;2.22;;;;;;;6.83;85.21;94942.66;5032262;28;20636;-74
2021/12/29 00:50:18;;;;;;;11.45;2.58;;;;;;;6.75;85.34;94944.31;5031877;28;20110;-73
2021/12/29 00:52:47;;;;;;;5.88;1.35;;;;;;;6.69;85.72;94951.03;5032272;28;20072;-73
2021/12/29 00:55:14;;;;;;;9.88;1.63;;;;;;;6.66;86.09;94948.97;5031697;28;20053;-74
2021/12/29 00:57:41;;;;;;;4.50;1.17;;;;;;;6.65;85.72;94936.56;5031971;28;20428;-73
2021/12/29 01:00:11;;;;;;;13.00;1.95;;;;;;;6.63;86.29;94963.13;5031810;28;20045;-73
2021/12/29 01:02:38;;;;;;;7.10;1.30;;;;;;;6.63;85.78;94965.84;5031947;28;20049;-73
2021/12/29 01:05:05;;;;;;;9.00;1.30;;;;;;;6.64;85.68;94968.25;5031578;28;20045;-73
2021/12/29 01:07:32;;;;;;;7.05;1.20;;;;;;;6.65;85.34;94964.41;5031935;28;20042;-73
2021/12/29 01:10:02;;;;;;;6.65;0.98;;;;;;;6.65;85.51;94977.94;5033111;28;20531;-73
2021/12/29 01:12:29;;;;;;;4.10;1.20;;;;;;;6.63;86.22;94973.97;5031454;28;20042;-73
2021/12/29 01:14:56;;;;;;;6.03;0.90;;;;;;;6.64;86.91;94979.06;5031904;28;20053;-73
2021/12/29 01:17:24;;;;;;;6.75;1.15;;;;;;;6.61;86.57;94989.72;5030906;28;20045;-74
2021/12/29 01:19:53;;;;;;;6.78;1.20;;;;;;;6.62;86.15;94985.91;5031708;28;20145;-73
2021/12/29 01:22:21;;;;;;;8.15;1.00;;;;;;;6.53;86.63;94978.63;5030872;28;20055;-74
2021/12/29 01:24:47;;;;;;;9.10;1.45;;;;;;;6.53;86.43;94989.44;5031495;28;20042;-73
2021/12/29 01:27:17;;;;;;;6.05;1.38;;;;;;;6.53;86.22;94986.75;5031060;28;20076;-73
2021/12/29 01:29:46;;;;;;;8.27;1.33;;;;;;;6.51;86.55;94996.28;5031725;28;20476;-73
2021/12/29 01:32:12;;;;;;;5.35;1.25;;;;;;;6.52;86.42;95001.41;5031002;28;20046;-72
2021/12/29 01:34:39;;;;;;;8.80;1.90;;;;;;;6.53;86.73;94994.06;5031570;28;20522;-72
2021/12/29 01:37:05;;;;;;;8.63;1.30;;;;;;;6.61;85.25;94984.31;5030863;28;20045;-73
2021/12/29 01:39:32;;;;;;;6.07;1.20;;;;;;;6.70;84.98;95004.00;5031349;28;20044;-73
2021/12/29 01:41:59;;;;;;;7.57;1.48;;;;;;;6.76;84.17;94991.88;5032538;28;20644;-73
2021/12/29 01:44:28;;;;;;;7.47;1.42;;;;;;;6.74;84.71;95010.38;5031176;28;20045;-73
2021/12/29 01:46:56;;;;;;;6.90;1.13;;;;;;;6.74;84.05;95002.25;5031283;28;20050;-73
2021/12/29 01:49:23;;;;;;;7.55;1.30;;;;;;;6.76;84.19;95025.13;5030802;28;20049;-73
2021/12/29 01:51:59;;;;;;;9.35;1.10;;;;;;;6.83;84.35;95024.63;5031233;28;20091;-72
2021/12/29 01:54:26;;;;;;;6.75;1.40;;;;;;;6.82;83.25;95022.25;5030834;28;20644;-73
2021/12/29 01:56:56;;;;;;;9.65;1.55;;;;;;;6.83;83.87;95032.72;5030288;28;20468;-73
2021/12/29 01:59:24;;;;;;;5.15;1.30;;;;;;;6.81;84.12;95026.88;5030787;28;20052;-73
2021/12/29 02:01:52;;;;;;;7.25;1.30;;;;;;;6.82;83.85;95028.44;5030982;28;20120;-73
2021/12/29 02:04:20;;;;;;;7.45;1.40;;;;;;;6.83;84.17;95032.72;5030499;28;20045;-73
2021/12/29 02:06:47;;;;;;;7.53;1.20;;;;;;;6.79;83.90;95048.06;5030945;28;20419;-73
2021/12/29 02:09:14;;;;;;;7.65;1.30;;;;;;;6.75;84.84;95034.38;5030525;28;20044;-73
2021/12/29 02:11:42;;;;;;;4.90;1.02;;;;;;;6.71;84.84;95030.72;5032276;28;20053;-73
2021/12/29 02:14:10;;;;;;;4.93;1.13;;;;;;;6.70;85.23;95031.84;5030596;28;20052;-72
2021/12/29 02:16:37;;;;;;;10.13;2.00;;;;;;;6.65;85.16;95039.34;5030852;28;20061;-73
2021/12/29 02:19:08;;;;;;;7.88;1.55;;;;;;;6.59;86.43;95037.97;5030509;28;20510;-72
2021/12/29 02:21:37;;;;;;;10.57;1.55;;;;;;;6.53;86.45;95037.34;5030855;28;20051;-73
2021/12/29 02:24:20;;;;;;;8.52;1.52;;;;;;;6.52;86.81;95033.03;5030558;28;20045;-72
2021/12/29 02:26:48;;;;;;;6.40;1.00;;;;;;;6.54;85.66;95038.94;5030759;28;20049;-73
2021/12/29 02:29:18;;;;;;;8.77;1.83;;;;;;;6.51;85.65;95034.16;5029999;28;20645;-73
2021/12/29 02:31:47;;;;;;;7.30;1.65;;;;;;;6.55;85.34;95040.50;5031079;28;20049;-73
2021/12/29 02:34:15;;;;;;;5.47;1.83;;;;;;;6.60;85.03;95042.25;5030227;28;20042;-73
2021/12/29 02:36:45;;;;;;;10.23;1.63;;;;;;;6.68;84.80;95046.81;5030810;28;20049;-73
2021/12/29 02:39:20;;;;;;;3.50;1.15;;;;;;;6.78;83.80;95043.75;5030345;28;20129;-74
2021/12/29 02:41:51;;;;;;;8.45;1.23;;;;;;;6.88;82.59;95048.00;5031977;28;20073;-73
2021/12/29 02:44:24;;;;;;;8.77;1.50;;;;;;;6.93;82.62;95070.25;5030297;28;20100;-72
2021/12/29 02:46:51;;;;;;;5.72;1.08;;;;;;;6.99;83.06;95070.84;5030779;28;20128;-73
2021/12/29 02:49:17;;;;;;;5.35;1.30;;;;;;;7.01;82.30;95074.84;5030136;28;20041;-73
2021/12/29 02:51:45;;;;;;;6.78;1.38;;;;;;;7.02;82.27;95081.84;5030819;28;20046;-73
2021/12/29 02:54:12;;;;;;;11.25;1.77;;;;;;;7.01;82.28;95085.66;5030067;28;20041;-73
2021/12/29 02:56:39;;;;;;;10.65;1.05;;;;;;;7.06;82.60;95098.22;5030702;28;20045;-73
2021/12/29 02:59:05;;;;;;;6.00;1.17;;;;;;;7.04;81.85;95098.53;5030306;28;20045;-73
2021/12/29 03:01:32;;;;;;;12.85;1.52;;;;;;;7.03;82.60;95110.47;5030440;28;20499;-73
2021/12/29 03:04:00;;;;;;;16.42;1.70;;;;;;;6.98;83.44;95107.16;5030686;28;20056;-73
2021/12/29 03:06:27;;;;;;;7.82;1.35;;;;;;;6.96;82.83;95110.22;5030125;28;20848;-73
2021/12/29 03:08:55;;;;;;;10.82;1.70;;;;;;;6.92;83.08;95113.88;5032831;28;20407;-73
2021/12/29 03:11:21;;;;;;;10.77;1.70;;;;;;;6.93;83.44;95126.28;5034827;28;20056;-73
2021/12/29 03:13:48;;;;;;;7.50;1.45;;;;;;;6.91;83.66;95123.13;5034108;28;20510;-73
2021/12/29 03:16:15;;;;;;;12.23;1.80;;;;;;;6.89;83.70;95115.34;5033441;28;20164;-73
2021/12/29 03:18:43;;;;;;;6.40;1.40;;;;;;;6.89;84.28;95125.34;5033885;28;20045;-73
2021/12/29 03:21:10;;;;;;;11.38;1.73;;;;;;;6.91;83.50;95133.94;5033552;28;20041;-72
2021/12/29 03:23:37;;;;;;;7.13;1.42;;;;;;;6.92;83.49;95130.91;5033712;28;20491;-73
2021/12/29 03:26:06;;;;;;;9.88;1.25;;;;;;;6.92;83.33;95136.31;5033398;28;20052;-73
2021/12/29 03:28:33;;;;;;;7.30;1.83;;;;;;;6.95;83.63;95145.72;5033744;28;20041;-73
2021/12/29 03:31:00;;;;;;;8.70;1.38;;;;;;;6.96;83.42;95153.50;5033679;28;20046;-73
2021/12/29 03:33:28;;;;;;;11.18;1.60;;;;;;;6.96;83.41;95148.09;5033304;28;21156;-73
2021/12/29 03:35:57;;;;;;;7.15;1.45;;;;;;;6.97;83.85;95143.47;5033919;28;20054;-73
2021/12/29 03:38:26;;;;;;;6.53;1.20;;;;;;;6.97;83.68;95162.41;5033947;28;20118;-73
2021/12/29 03:40:54;;;;;;;5.40;1.35;;;;;;;6.95;84.08;95157.34;5053102;28;20052;-73
2021/12/29 03:43:23;;;;;;;12.15;3.05;;;;;;;6.94;84.08;95172.00;5053000;28;20518;-73
2021/12/29 03:45:52;;;;;;;7.65;1.13;;;;;;;6.95;84.51;95161.97;5040056;28;20046;-73
2021/12/29 03:48:20;;;;;;;10.50;1.60;;;;;;;6.94;84.66;95172.00;5033140;28;20581;-73
2021/12/29 03:50:48;;;;;;;7.70;1.30;;;;;;;6.95;84.44;95184.41;5033673;28;20049;-73
2021/12/29 03:53:15;;;;;;;10.35;1.80;;;;;;;6.93;84.55;95170.38;5032947;28;20104;-72
2021/12/29 03:55:42;;;;;;;9.18;1.50;;;;;;;6.98;84.43;95180.25;5033345;28;20069;-73
2021/12/29 03:58:09;;;;;;;6.70;1.35;;;;;;;6.97;84.02;95184.88;5032768;28;20407;-73
2021/12/29 04:00:37;;;;;;;10.88;2.38;;;;;;;7.00;84.00;95192.34;5033312;28;20057;-73
2021/12/29 04:03:05;;;;;;;8.00;1.50;;;;;;;7.00;83.97;95192.34;5032861;28;20049;-73
2021/12/29 04:05:32;;;;;;;6.57;1.02;;;;;;;7.00;84.43;95197.75;5033142;28;20056;-73
2021/12/29 04:07:58;;;;;;;8.10;1.20;;;;;;;6.99;84.94;95206.19;5033210;28;20442;-73
2021/12/29 04:10:25;;;;;;;7.47;1.38;;;;;;;6.95;84.85;95191.72;5032817;28;20133;-73
2021/12/29 04:12:52;;;;;;;7.20;1.42;;;;;;;6.86;85.59;95199.88;5032827;28;20049;-73
2021/12/29 04:15:18;;;;;;;8.00;1.83;;;;;;;6.85;86.16;95211.81;5038258;28;20064;-73
2021/12/29 04:17:48;;;;;;;6.18;1.20;;;;;;;6.82;85.98;95211.66;5032777;28;20517;-73
2021/12/29 04:23:05;;;;;;;8.15;1.10;;;;;;;6.78;86.21;95206.06;5032322;28;20055;-73
2021/12/29 04:25:35;;;;;;;4.40;1.02;;;;;;;6.80;85.84;95217.38;5032826;28;20056;-73
2021/12/29 04:28:04;;;;;;;7.68;0.93;;;;;;;6.82;85.85;95220.56;5032183;28;20520;-72
2021/12/29 04:30:31;;;;;;;3.60;1.35;;;;;;;6.81;85.58;95227.09;5032847;28;20056;-73
2021/12/29 04:32:59;;;;;;;12.90;2.03;;;;;;;6.86;85.64;95223.44;5032679;28;20068;-74
2021/12/29 04:35:26;;;;;;;6.72;1.20;;;;;;;6.89;84.74;95223.59;5032215;28;20049;-73
2021/12/29 04:37:53;;;;;;;7.95;1.40;;;;;;;6.93;84.44;95231.84;5032411;28;20057;-73
2021/12/29 04:40:20;;;;;;;3.75;0.90;;;;;;;6.97;84.22;95228.16;5031869;28;20538;-74
2021/12/29 04:42:47;;;;;;;4.07;0.90;;;;;;;6.99;83.97;95242.16;5032598;28;20096;-73
2021/12/29 04:45:14;;;;;;;5.68;0.90;;;;;;;6.98;84.19;95246.00;5037185;28;20120;-73
2021/12/29 04:47:44;;;;;;;5.40;0.90;;;;;;;6.97;84.44;95246.31;5032308;28;20049;-73
2021/12/29 04:50:24;;;;;;;8.43;1.33;;;;;;;6.99;84.27;95261.09;5031888;28;20055;-73
2021/12/29 04:52:51;;;;;;;5.43;0.75;;;;;;;7.00;84.29;95256.53;5032219;28;20072;-73
2021/12/29 04:55:17;;;;;;;4.72;1.23;;;;;;;6.98;84.20;95273.06;5031858;28;20041;-73
2021/12/29 04:57:44;;;;;;;4.60;0.75;;;;;;;7.04;83.85;95265.56;5032178;28;20050;-73
2021/12/29 05:00:11;;;;;;;7.32;1.23;;;;;;;7.03;83.97;95266.69;5031757;28;20053;-73
2021/12/29 05:02:38;;;;;;;7.20;1.00;;;;;;;7.06;83.65;95280.38;5032184;28;20053;-73
2021/12/29 05:05:18;;;;;;;5.70;0.95;;;;;;;7.05;83.77;95278.78;5031648;28;20487;-73
2021/12/29 05:10:31;;;;;;;7.25;1.00;;;;;;;7.11;83.27;95286.75;5031854;28;20071;-72
2021/12/29 05:12:57;;;;;;;5.47;0.90;;;;;;;7.12;82.80;95286.41;5031681;28;20073;-73
2021/12/29 05:15:24;;;;;;;4.72;0.80;;;;;;;7.14;83.28;95278.75;5037045;28;20053;-73
2021/12/29 05:17:50;;;;;;;3.20;0.80;;;;;;;7.16;83.27;95283.88;5031658;28;20045;-73
2021/12/29 05:20:17;;;;;;;5.30;1.17;;;;;;;7.20;83.21;95292.91;5031110;28;20049;-73
2021/12/29 05:22:43;;;;;;;5.13;1.20;;;;;;;7.22;82.88;95296.13;5031271;28;20064;-73
2021/12/29 05:25:11;;;;;;;5.65;0.70;;;;;;;7.28;82.61;95308.38;5031124;28;20053;-72
2021/12/29 05:27:38;;;;;;;4.13;0.63;;;;;;;7.25;82.26;95322.53;5031534;28;20523;-73
2021/12/29 05:30:05;;;;;;;5.38;0.73;;;;;;;7.27;82.22;95320.31;5031000;28;20045;-72
2021/12/29 05:32:32;;;;;;;3.63;0.75;;;;;;;7.26;82.17;95313.31;5031479;28;20041;-72
2021/12/29 05:34:59;;;;;;;5.32;0.77;;;;;;;7.26;82.14;95316.03;5031345;28;20128;-73
2021/12/29 05:37:26;;;;;;;7.85;1.13;;;;;;;7.25;82.25;95323.31;5031212;28;20069;-73
2021/12/29 05:39:52;;;;;;;5.90;0.82;;;;;;;7.25;82.28;95328.75;5031827;28;20057;-73
2021/12/29 05:42:20;;;;;;;3.75;0.90;;;;;;;7.26;82.41;95319.53;5030846;28;20049;-73
2021/12/29 05:44:46;;;;;;;2.92;0.90;;;;;;;7.27;82.48;95331.16;5034622;28;20045;-73
2021/12/29 05:47:13;;;;;;;2.88;0.65;;;;;;;7.29;82.26;95332.41;5033037;28;20086;-72
2021/12/29 05:49:39;;;;;;;3.70;1.10;;;;;;;7.26;82.73;95335.78;5031307;28;20072;-73
2021/12/29 05:52:06;;;;;;;4.85;1.15;;;;;;;7.27;83.02;95341.97;5030783;28;20060;-72
2021/12/29 05:54:33;;;;;;;4.03;0.80;;;;;;;7.25;83.09;95342.28;5031177;28;20049;-72
2021/12/29 05:56:59;;;;;;;6.47;1.80;;;;;;;7.25;83.20;95350.41;5031207;28;20073;-73
2021/12/29 05:59:27;;;;;;;6.60;1.00;;;;;;;7.21;83.34;95356.81;5030801;28;20049;-73
2021/12/29 06:01:54;;;;;;;1.73;0.60;;;;;;;7.18;83.37;95357.44;5031261;28;20045;-73
2021/12/29 06:04:20;;;;;;;3.70;0.95;;;;;;;7.20;83.23;95363.31;5030707;28;20500;-73
2021/12/29 06:06:46;;;;;;;4.65;0.77;;;;;;;7.18;83.64;95360.13;5031087;28;20056;-73
2021/12/29 06:09:14;;;;;;;4.18;0.65;;;;;;;7.20;83.53;95363.31;5030704;28;20049;-73
2021/12/29 06:11:40;;;;;;;3.42;0.70;;;;;;;7.23;83.54;95368.09;5030822;28;20049;-73
2021/12/29 06:14:07;;;;;;;4.40;1.00;;;;;;;7.23;83.49;95368.09;5030328;28;20041;-73
2021/12/29 06:16:35;;;;;;;5.18;0.80;;;;;;;7.21;83.24;95381.97;5036603;28;20045;-72
2021/12/29 06:19:01;;;;;;;3.38;0.68;;;;;;;7.24;82.92;95391.34;5030727;28;20049;-72
2021/12/29 06:21:28;;;;;;;3.25;0.85;;;;;;;7.27;83.32;95390.72;5030778;28;20041;-72
2021/12/29 06:23:55;;;;;;;4.07;0.77;;;;;;;7.21;83.85;95389.28;5030901;28;20073;-72
2021/12/29 06:26:21;;;;;;;4.95;0.60;;;;;;;7.19;84.11;95394.22;5030792;28;20049;-73
2021/12/29 06:28:49;;;;;;;5.57;1.05;;;;;;;7.18;84.89;95398.84;5030790;28;20046;-73
2021/12/29 06:31:15;;;;;;;7.72;1.08;;;;;;;7.14;85.57;95391.66;5030448;28;20041;-73
2021/12/29 06:33:45;;;;;;;7.75;1.25;;;;;;;7.05;85.93;95400.59;5030678;28;20408;-72
2021/12/29 06:36:12;;;;;;;6.55;0.75;;;;;;;6.99;86.10;95414.59;5030439;28;20068;-73
2021/12/29 06:38:39;;;;;;;1.75;0.80;;;;;;;6.96;86.38;95429.56;5030655;28;20041;-73
2021/12/29 06:41:05;;;;;;;5.75;0.88;;;;;;;6.95;86.60;95419.88;5030544;28;20076;-72
2021/12/29 06:43:32;;;;;;;2.53;0.80;;;;;;;6.97;86.31;95435.78;5032737;28;20052;-73
2021/12/29 06:45:58;;;;;;;4.90;1.25;;;;;;;7.00;86.43;95435.16;5038869;28;20049;-72
2021/12/29 06:48:25;;;;;;;6.10;0.93;;;;;;;7.01;86.60;95436.75;5034282;28;20037;-73
2021/12/29 06:50:52;;;;;;;5.28;0.90;;;;;;;6.91;87.87;95445.97;5034588;28;20056;-73
2021/12/29 06:53:19;;;;;;;5.05;1.00;;;;;;;6.75;90.00;95451.03;5033937;28;20049;-72
2021/12/29 06:55:45;;;;;;;6.03;0.95;;;;;;;6.68;91.38;95450.72;5034582;28;20046;-72
2021/12/29 06:58:12;;;;;;;3.05;0.80;;;;;;;6.56;92.34;95461.31;5034042;28;20524;-72
2021/12/29 07:00:40;;;;;;;5.97;1.00;;;;;;;6.51;92.92;95458.75;5034305;28;20053;-73
2021/12/29 07:03:07;;;;;;;5.60;0.80;;;;;;;6.47;93.13;95460.47;5033987;28;20046;-72
2021/12/29 07:05:33;;;;;;;5.57;1.00;;;;;;;6.45;93.40;95468.91;5034254;28;20052;-73
2021/12/29 07:08:01;;;;;;;3.60;0.70;;;;;;;6.46;93.29;95465.09;5034306;28;20057;-73
2021/12/29 07:10:28;;;;;;;4.22;0.90;;;;;;;6.46;93.19;95470.50;5034056;28;20044;-73
2021/12/29 07:12:54;;;;;;;6.05;1.77;;;;;;;6.49;93.20;95482.63;5034233;28;20049;-72
2021/12/29 07:15:21;;;;;;;9.32;1.52;;;;;;;6.50;92.84;95476.09;5039133;28;20056;-72
2021/12/29 07:17:47;;;;;;;4.32;0.90;;;;;;;6.49;92.77;95486.13;5033919;28;20042;-73
2021/12/29 07:20:14;;;;;;;5.70;1.20;;;;;;;6.49;92.80;95485.31;5033631;28;20053;-73
2021/12/29 07:22:40;;;;;;;2.90;0.98;;;;;;;6.50;93.03;95492.31;5033644;28;20057;-73
2021/12/29 07:25:08;;;;;;;7.57;1.00;;;;;;;6.50;93.26;95498.53;5033488;28;20503;-72
2021/12/29 07:27:35;;;;;;;6.28;3.15;;;;;;;6.45;93.55;95501.38;5033947;28;20049;-72
2021/12/29 07:30:02;;;;;;;5.70;1.08;;;;;;;6.48;93.50;95505.38;5033369;28;20057;-72
2021/12/29 07:32:28;;;;;;;5.75;1.10;;;;;;;6.46;93.93;95502.97;5033850;28;20064;-72
2021/12/29 07:34:55;;;;;;;6.93;1.17;;;;;;;6.45;93.83;95506.78;5033569;28;20053;-72
2021/12/29 07:37:21;;;;;;;4.22;1.25;;;;;;;6.46;93.89;95496.75;5033227;28;20053;-72
2021/12/29 07:39:48;;;;;;;7.88;1.02;;;;;;;6.47;93.80;95499.19;5033794;28;20048;-73
2021/12/29 07:42:16;;;;;;;5.38;1.38;;;;;;;6.46;93.75;95502.97;5033101;28;20591;-74
2021/12/29 07:44:45;;;;;;;5.55;0.98;;;;;;;6.47;93.62;95509.16;5034541;28;20399;-72
2021/12/29 07:47:13;;;;;;;3.78;0.98;;;;;;;6.44;93.84;95513.31;5032905;28;20049;-73
2021/12/29 07:49:39;;;;;;;6.25;1.10;;;;;;;6.44;93.80;95524.13;5033296;28;20041;-72
2021/12/29 07:52:06;;;;;;;3.40;0.88;;;;;;;6.43;94.25;95527.94;5032907;28;20052;-72
2021/12/29 07:54:32;;;;;;;5.35;1.38;;;;;;;6.43;93.92;95537.97;5033311;28;20045;-73
2021/12/29 07:56:59;;;;;;;4.28;0.90;;;;;;;6.42;94.11;95537.16;5033281;28;20050;-73
2021/12/29 07:59:27;;;;;;;5.57;1.13;;;;;;;6.39;94.33;95537.78;5032611;28;20037;-73
2021/12/29 08:01:53;;;;;;;6.28;1.08;;;;;;;6.38;94.44;95538.91;5033183;28;20045;-72
2021/12/29 08:04:20;;;;;;;5.13;1.00;;;;;;;6.38;94.51;95544.31;5032766;28;20057;-72
2021/12/29 08:06:46;;;;;;;3.30;0.98;;;;;;;6.42;94.81;95547.16;5033075;28;20049;-72
2021/12/29 08:09:13;;;;;;;9.18;1.15;;;;;;;6.42;94.81;95553.41;5032602;28;20045;-72
2021/12/29 08:11:41;;;;;;;5.30;1.00;;;;;;;6.42;94.53;95563.38;5033107;28;20049;-72
2021/12/29 08:14:08;;;;;;;5.70;1.33;;;;;;;6.44;94.59;95570.09;5032580;28;20514;-72
2021/12/29 08:16:36;;;;;;;2.47;1.05;;;;;;;6.47;94.74;95574.91;5033137;28;20050;-72
2021/12/29 08:19:05;;;;;;;7.85;1.02;;;;;;;6.46;94.58;95578.69;5032360;28;20053;-71
2021/12/29 08:21:31;;;;;;;2.90;0.65;;;;;;;6.42;94.13;95582.31;5032721;28;20049;-72
2021/12/29 08:23:57;;;;;;;3.90;0.73;;;;;;;6.39;94.06;95572.94;5032805;28;20124;-73
2021/12/29 08:26:24;;;;;;;3.22;0.73;;;;;;;6.38;94.26;95579.47;5032449;28;20392;-72
2021/12/29 08:28:51;;;;;;;2.42;0.82;;;;;;;6.41;94.80;95572.63;5032769;28;20057;-72
2021/12/29 08:31:17;;;;;;;3.70;0.88;;;;;;;6.40;94.97;95571.81;5032204;28;20067;-72
2021/12/29 08:33:45;;;;;;;5.15;1.20;;;;;;;6.36;96.06;95573.53;5032619;28;20049;-72
2021/12/29 08:36:12;;;;;;;4.47;1.33;;;;;;;6.42;95.96;95566.91;5032258;28;20077;-72
2021/12/29 08:38:38;;;;;;;4.82;0.93;;;;;;;6.48;96.00;95560.25;5032324;28;20519;-72
2021/12/29 08:41:05;;;;;;;8.07;0.88;;;;;;;6.50;95.77;95563.44;5032150;28;20053;-72
2021/12/29 08:43:32;;;;;;;5.25;0.93;;;;;;;6.52;95.73;95577.47;5032403;28;20045;-73
2021/12/29 08:45:59;;;;;;;4.25;1.00;;;;;;;6.53;95.35;95578.28;5032783;28;20075;-73
2021/12/29 08:48:25;;;;;;;2.17;1.02;;;;;;;6.56;95.44;95576.84;5031839;28;20041;-72
2021/12/29 08:50:54;;;;;;;7.15;1.40;;;;;;;6.52;95.53;95582.06;5032367;28;20053;-72
2021/12/29 08:53:20;;;;;;;5.03;1.00;;;;;;;6.48;95.32;95586.50;5031868;28;20041;-72
2021/12/29 08:55:48;;;;;;;6.35;1.42;;;;;;;6.45;95.42;95582.50;5032130;28;20052;-73
2021/12/29 08:58:15;;;;;;;5.10;1.63;;;;;;;6.51;95.46;95586.66;5031618;28;20050;-72
2021/12/29 09:00:42;;;;;;;5.25;1.20;;;;;;;6.51;95.23;95583.97;5031965;28;20508;-73
2021/12/29 09:03:08;;;;;;;6.53;1.33;;;;;;;6.51;94.61;95602.09;5031739;28;20515;-73
2021/12/29 09:05:36;;;;;;;4.68;0.80;;;;;;;6.52;94.74;95596.41;5031587;28;20133;-72
2021/12/29 09:08:04;;;;;;;9.43;1.38;;;;;;;6.55;94.82;95608.50;5031536;28;20095;-71
2021/12/29 09:10:31;;;;;;;3.95;0.85;;;;;;;6.58;94.45;95609.75;5031817;28;20488;-72
2021/12/29 09:12:57;;;;;;;4.28;1.52;;;;;;;6.60;93.73;95612.97;5031887;28;20053;-72
2021/12/29 09:15:25;;;;;;;4.30;0.90;;;;;;;6.74;92.98;95611.78;5031723;28;20500;-73
2021/12/29 09:17:51;;;;;;;5.00;0.80;;;;;;;6.88;91.64;95610.88;5031997;28;20049;-73
2021/12/29 09:20:26;;;;;;;2.47;1.17;;;;;;;6.99;90.83;95623.81;5031532;28;20056;-72
2021/12/29 09:22:54;;;;;;;5.70;0.93;;;;;;;7.07;89.94;95616.84;5031691;28;20077;-73
2021/12/29 09:25:23;;;;;;;6.10;1.20;;;;;;;7.19;89.33;95619.75;5031279;28;20404;-72
2021/12/29 09:27:50;;;;;;;3.05;0.73;;;;;;;7.29;88.90;95626.78;5031644;28;20701;-72
2021/12/29 09:30:19;;;;;;;4.47;0.70;;;;;;;7.33;87.82;95630.47;5031224;28;20416;-74
2021/12/29 09:32:45;;;;;;;1.85;0.50;;;;;;;7.39;88.07;95621.06;5031394;28;20073;-74
2021/12/29 09:35:12;;;;;;;4.72;0.80;;;;;;;7.41;87.50;95624.25;5031072;28;20049;-75
2021/12/29 09:37:39;;;;;;;5.38;0.88;;;;;;;7.44;87.23;95615.50;5031579;28;20104;-74
2021/12/29 09:40:06;;;;;;;4.43;0.80;;;;;;;7.50;86.92;95616.16;5031008;28;20049;-74
2021/12/29 09:42:34;;;;;;;5.13;0.60;;;;;;;7.48;87.11;95619.19;5031526;28;20044;-75
2021/12/29 09:45:01;;;;;;;2.60;0.55;;;;;;;7.44;87.42;95614.72;5031726;28;20486;-75
2021/12/29 09:47:28;;;;;;;3.83;0.80;;;;;;;7.39;86.92;95604.81;5031125;28;20072;-74
2021/12/29 09:49:55;;;;;;;2.72;0.75;;;;;;;7.43;87.95;95611.22;5031492;28;20051;-75
2021/12/29 09:52:22;;;;;;;4.65;1.08;;;;;;;7.49;87.70;95615.38;5030857;28;20053;-74
2021/12/29 09:54:48;;;;;;;3.45;0.80;;;;;;;7.50;87.18;95610.75;5031039;28;20045;-74
2021/12/29 09:57:15;;;;;;;3.28;0.60;;;;;;;7.57;86.85;95617.31;5030675;28;20049;-73
2021/12/29 09:59:43;;;;;;;4.82;0.80;;;;;;;7.70;85.71;95614.75;5030987;28;20103;-74
2021/12/29 10:02:10;;;;;;;3.88;0.70;;;;;;;7.81;85.07;95610.63;5030558;28;20050;-74
2021/12/29 10:04:38;;;;;;;2.85;1.27;;;;;;;7.89;84.69;95612.56;5031108;28;20057;-74
2021/12/29 10:07:12;;;;;;;3.97;0.65;;;;;;;8.02;84.20;95613.50;5030494;28;20526;-74
2021/12/29 10:09:39;;;;;;;3.70;0.77;;;;;;;8.11;83.56;95614.28;5030966;28;20080;-74
2021/12/29 10:12:08;;;;;;;4.93;0.80;;;;;;;8.16;83.70;95619.56;5030447;28;20500;-74
2021/12/29 10:14:35;;;;;;;5.93;0.88;;;;;;;8.19;82.32;95615.41;5030950;28;20072;-75
2021/12/29 10:17:11;;;;;;;3.20;1.10;;;;;;;8.23;83.08;95616.34;5031226;28;20068;-74
2021/12/29 10:19:38;;;;;;;4.75;0.82;;;;;;;8.25;82.25;95630.41;5034818;28;20041;-74
2021/12/29 10:22:04;;;;;;;4.22;0.77;;;;;;;8.28;82.16;95629.75;5034507;28;20061;-74
2021/12/29 10:24:31;;;;;;;3.60;0.60;;;;;;;8.29;82.02;95632.13;5034962;28;20448;-74
2021/12/29 10:26:59;;;;;;;3.10;0.60;;;;;;;8.32;81.72;95630.72;5034720;28;20519;-74
2021/12/29 10:29:28;;;;;;;4.03;0.82;;;;;;;8.35;82.07;95640.91;5034334;28;20045;-74
2021/12/29 10:31:58;;;;;;;5.15;0.85;;;;;;;8.39;81.43;95641.09;5034830;28;20060;-74
2021/12/29 10:34:29;;;;;;;1.60;0.60;;;;;;;8.40;79.32;95648.91;5034541;28;20052;-74
2021/12/29 10:36:57;;;;;;;5.45;1.08;;;;;;;8.34;81.23;95650.16;5034762;28;20132;-74
2021/12/29 10:39:28;;;;;;;2.45;0.85;;;;;;;8.23;81.76;95659.75;5034163;28;20041;-74
2021/12/29 10:41:58;;;;;;;4.50;0.60;;;;;;;8.17;82.98;95644.75;5034603;28;20045;-74
2021/12/29 10:44:27;;;;;;;4.47;0.90;;;;;;;8.13;83.69;95649.22;5034277;28;20069;-74
2021/12/29 10:46:56;;;;;;;3.67;0.80;;;;;;;8.23;83.41;95651.63;5034896;28;20049;-74
2021/12/29 10:49:24;;;;;;;6.80;1.13;;;;;;;8.29;83.22;95653.03;5034038;28;20045;-74
2021/12/29 10:51:52;;;;;;;4.43;1.00;;;;;;;8.42;82.53;95651.31;5034795;28;20077;-74
2021/12/29 10:54:23;;;;;;;5.38;0.90;;;;;;;8.55;83.07;95661.97;5033951;28;20045;-74
2021/12/29 10:56:59;;;;;;;8.65;0.88;;;;;;;8.62;82.28;95656.88;5034236;28;20128;-74
2021/12/29 10:59:29;;;;;;;2.05;0.60;;;;;;;8.73;81.58;95656.53;5033887;28;20048;-74
2021/12/29 11:01:56;;;;;;;7.85;1.05;;;;;;;8.81;83.19;95659.22;5034379;28;20042;-74
2021/12/29 11:04:24;;;;;;;4.03;0.93;;;;;;;8.90;81.88;95661.91;5034001;28;20099;-74
2021/12/29 11:06:56;;;;;;;3.22;1.00;;;;;;;8.99;80.79;95662.69;5034261;28;20072;-74
2021/12/29 11:09:26;;;;;;;4.28;1.02;;;;;;;9.07;80.87;95659.13;5033779;28;20084;-74
2021/12/29 11:11:53;;;;;;;3.80;0.80;;;;;;;9.17;80.96;95665.34;5034030;28;20405;-72
2021/12/29 11:14:25;;;;;;;6.43;0.95;;;;;;;9.15;79.95;95663.75;5033704;28;20045;-72
2021/12/29 11:17:01;;;;;;;4.72;1.00;;;;;;;9.14;78.92;95662.16;5034313;28;20458;-72
2021/12/29 11:19:28;;;;;;;6.68;0.90;;;;;;;9.10;79.20;95661.22;5033516;28;20045;-72
2021/12/29 11:22:07;;;;;;;7.45;1.30;;;;;;;9.10;78.11;95668.56;5033699;28;20057;-72
2021/12/29 11:24:33;;;;;;;2.50;0.70;;;;;;;9.08;78.08;95663.47;5033848;28;20049;-72
2021/12/29 11:27:00;;;;;;;5.85;0.90;;;;;;;9.15;77.35;95663.75;5033809;28;20451;-74
2021/12/29 11:29:26;;;;;;;5.60;1.02;;;;;;;9.27;78.09;95659.56;5032853;28;20049;-72
2021/12/29 11:31:59;;;;;;;3.70;0.90;;;;;;;9.37;73.58;95657.25;5033648;28;20080;-74
2021/12/29 11:34:27;;;;;;;4.93;0.75;;;;;;;9.38;75.92;95649.91;5033569;28;20076;-72
2021/12/29 11:37:05;;;;;;;2.30;0.80;;;;;;;9.46;75.20;95662.66;5033551;28;20049;-72
2021/12/29 11:39:34;;;;;;;3.92;0.70;;;;;;;9.50;72.26;95663.63;5033462;28;20049;-72
2021/12/29 11:42:00;;;;;;;2.88;0.85;;;;;;;9.44;73.67;95658.66;5033586;28;20053;-73
2021/12/29 11:44:28;;;;;;;4.20;1.40;;;;;;;9.46;72.98;95651.78;5033310;28;20041;-72
2021/12/29 11:46:55;;;;;;;7.53;2.08;;;;;;;9.53;73.71;95656.72;5033655;28;20515;-72
2021/12/29 11:49:22;;;;;;;3.92;0.88;;;;;;;9.60;75.13;95660.50;5032947;28;20088;-72